NO-0061 weather

Eidsberg Airstrip
Østfold, Norway

Public forecast

Using degrees Celsius for public forecast. Weather courtesy of forecast.io.

METAR (pilot weather report)

Closest report is Moss Airport, Rygge, 16.9 nm (31.2 km) WSW. Retrieved 2019/05/25 21:20 UTC (4 minutes ago):

ENRY 252120Z AUTO 10003KT 9999NDV SCT066/// OVC090/// 11/09 Q1001

TAF (pilot weather forecast)

Closest forecast is Moss Airport, Rygge, 16.9 nm (31.2 km) WSW. Retrieved 2019/05/25 18:00 UTC (3 hours ago):

TAF TAF ENRY 251700Z 2518/2618 21008KT 9999 FEW030 SCT070 BECMG 2521/2523 32010KT TEMPO 2520/2524 FEW020CB TEMPO 2608/2610 34015G25KT BECMG 2614/2616 19010KT